createdAt,value
2023-04-20T00:02:21.793Z,50.50
2023-04-20T00:04:54.606Z,44.40
2023-04-20T00:07:27.514Z,42.70
2023-04-20T00:10:01.870Z,42.80
2023-04-20T00:12:34.483Z,41.70
2023-04-20T00:15:07.901Z,45.60
2023-04-20T00:17:40.653Z,45.40
2023-04-20T00:20:15.402Z,52.30
2023-04-20T00:22:48.706Z,52.30
2023-04-20T00:25:21.251Z,43.40
2023-04-20T00:27:53.592Z,43.10
2023-04-20T00:30:25.882Z,56.90
2023-04-20T00:32:58.281Z,54.40
2023-04-20T00:35:30.780Z,55.10
2023-04-20T00:38:02.908Z,51.20
2023-04-20T00:40:35.554Z,45.70
2023-04-20T00:43:16.252Z,47.00
2023-04-20T00:45:52.074Z,45.30
2023-04-20T00:48:24.876Z,44.60
2023-04-20T00:50:57.824Z,46.70
2023-04-20T00:53:29.912Z,45.40
2023-04-20T00:56:02.324Z,46.90
2023-04-20T00:58:37.148Z,45.50
2023-04-20T01:01:10.069Z,47.90
2023-04-20T01:03:43.254Z,46.80
2023-04-20T01:06:16.515Z,45.50
2023-04-20T01:08:53.267Z,43.90
2023-04-20T01:11:25.745Z,48.40
2023-04-20T01:13:57.923Z,89.10
2023-04-20T01:16:30.154Z,58.50
2023-04-20T01:19:02.365Z,50.00
2023-04-20T01:21:38.731Z,97.30
2023-04-20T01:24:11.555Z,53.50
2023-04-20T01:26:43.950Z,51.10
2023-04-20T01:29:16.282Z,46.80
2023-04-20T01:31:49.910Z,44.90
2023-04-20T01:34:24.415Z,45.20
2023-04-20T01:36:59.714Z,44.30
2023-04-20T01:39:31.898Z,42.30
2023-04-20T01:42:08.070Z,49.00
2023-04-20T01:44:41.744Z,57.90
2023-04-20T01:47:13.990Z,46.50
2023-04-20T01:49:46.349Z,44.70
2023-04-20T01:52:18.583Z,44.20
2023-04-20T01:54:50.994Z,41.90
2023-04-20T01:57:23.283Z,42.00
2023-04-20T01:59:56.405Z,40.40
2023-04-20T02:02:29.838Z,40.10
2023-04-20T02:05:02.213Z,41.70
2023-04-20T02:07:34.258Z,41.40
2023-04-20T02:10:09.294Z,40.40
2023-04-20T02:12:42.106Z,42.60
2023-04-20T02:15:17.147Z,41.20
2023-04-20T02:17:52.346Z,43.00
2023-04-20T02:20:25.117Z,43.00
2023-04-20T02:22:57.458Z,43.00
2023-04-20T02:25:29.865Z,45.90
2023-04-20T02:28:02.002Z,72.10
2023-04-20T02:30:34.477Z,50.20
2023-04-20T02:33:06.902Z,51.50
2023-04-20T02:35:42.038Z,41.70
2023-04-20T02:38:16.755Z,47.10
2023-04-20T02:40:48.841Z,43.20
2023-04-20T02:43:21.496Z,44.80
2023-04-20T02:45:54.010Z,40.70
2023-04-20T02:48:27.356Z,43.30
2023-04-20T02:50:59.691Z,41.10
2023-04-20T02:53:37.858Z,40.50
2023-04-20T02:56:29.432Z,45.50
2023-04-20T02:59:06.830Z,45.80
2023-04-20T03:01:59.248Z,42.90
2023-04-20T03:04:34.009Z,43.80
2023-04-20T03:07:24.278Z,42.90
2023-04-20T03:09:57.314Z,46.90
2023-04-20T03:12:48.344Z,44.10
2023-04-20T03:15:35.752Z,48.40
2023-04-20T03:18:12.877Z,42.60
2023-04-20T03:20:45.392Z,42.70
2023-04-20T03:23:17.493Z,49.00
2023-04-20T03:25:50.267Z,44.70
2023-04-20T03:28:36.347Z,41.30
2023-04-20T03:31:08.676Z,40.50
2023-04-20T03:33:40.818Z,39.20
2023-04-20T03:36:13.331Z,42.10
2023-04-20T03:38:45.460Z,40.20
2023-04-20T03:41:17.667Z,37.30
2023-04-20T03:43:49.775Z,39.40
2023-04-20T03:46:23.207Z,38.70
2023-04-20T03:48:55.691Z,39.40
2023-04-20T03:51:28.740Z,37.80
2023-04-20T03:54:00.948Z,40.00
2023-04-20T03:56:33.777Z,37.60
2023-04-20T03:59:09.088Z,36.30
2023-04-20T04:01:42.406Z,38.50
2023-04-20T04:04:14.902Z,40.10
2023-04-20T04:06:47.118Z,41.60
2023-04-20T04:09:19.381Z,41.30
2023-04-20T04:11:51.535Z,40.20
2023-04-20T04:14:24.211Z,42.50
2023-04-20T04:16:56.426Z,45.20
2023-04-20T04:19:28.562Z,80.10
2023-04-20T04:22:00.614Z,46.20
2023-04-20T04:24:33.829Z,53.70
2023-04-20T04:27:34.972Z,44.50
2023-04-20T04:30:54.299Z,40.60
2023-04-20T04:33:46.550Z,39.20
2023-04-20T04:36:24.281Z,51.20
2023-04-20T04:38:56.796Z,61.30
2023-04-20T04:41:29.269Z,41.10
2023-04-20T04:44:11.216Z,41.50
2023-04-20T04:46:47.847Z,54.80
2023-04-20T04:49:20.783Z,45.10
2023-04-20T04:51:53.230Z,48.60
2023-04-20T04:54:25.440Z,43.40
2023-04-20T04:56:58.334Z,39.30
2023-04-20T04:59:30.596Z,43.40
2023-04-20T05:02:02.783Z,42.80
2023-04-20T05:04:36.483Z,53.90
2023-04-20T05:07:11.090Z,38.50
2023-04-20T05:09:43.408Z,42.70
2023-04-20T05:12:15.694Z,43.00
2023-04-20T05:14:47.932Z,41.40
2023-04-20T05:17:22.258Z,58.30
2023-04-20T05:23:04.461Z,45.80
2023-04-20T05:25:36.709Z,43.40
2023-04-20T05:28:09.199Z,52.00
2023-04-20T05:30:41.375Z,45.20
2023-04-20T05:33:13.505Z,55.10
2023-04-20T05:36:21.742Z,56.10
2023-04-20T05:38:56.686Z,55.20
2023-04-20T05:42:14.393Z,51.20
2023-04-20T05:48:18.732Z,43.20
2023-04-20T05:50:51.095Z,48.70
2023-04-20T05:53:23.316Z,49.30
2023-04-20T05:55:55.412Z,46.00
2023-04-20T05:58:28.602Z,43.80
2023-04-20T06:01:02.510Z,43.40
2023-04-20T06:03:34.860Z,41.30
2023-04-20T06:06:08.052Z,45.80
2023-04-20T06:08:40.954Z,49.00
2023-04-20T06:11:13.109Z,77.20
2023-04-20T06:13:45.381Z,44.60
2023-04-20T06:16:20.902Z,50.60
2023-04-20T06:18:54.291Z,45.30
2023-04-20T06:21:27.406Z,47.50
2023-04-20T06:23:59.636Z,45.00
2023-04-20T06:26:31.697Z,43.60
2023-04-20T06:29:04.849Z,51.50
2023-04-20T06:31:37.276Z,49.70
2023-04-20T06:34:09.549Z,49.20
2023-04-20T06:36:44.879Z,76.20
2023-04-20T06:39:19.641Z,45.70
2023-04-20T06:41:51.994Z,49.10
2023-04-20T06:44:27.551Z,60.20
2023-04-20T06:47:02.132Z,47.40
2023-04-20T06:49:34.704Z,71.20
2023-04-20T06:52:07.262Z,50.80
2023-04-20T06:54:39.436Z,48.90
2023-04-20T06:57:11.596Z,47.20
2023-04-20T06:59:43.711Z,48.00
2023-04-20T07:02:16.076Z,70.90
2023-04-20T07:04:50.797Z,63.00
2023-04-20T07:07:24.317Z,49.60
2023-04-20T07:09:56.431Z,49.90
2023-04-20T07:12:28.588Z,45.10
2023-04-20T07:15:00.851Z,45.00
2023-04-20T07:17:33.348Z,52.10
2023-04-20T07:20:08.411Z,49.00
2023-04-20T07:22:40.989Z,66.20
2023-04-20T07:25:13.133Z,50.10
2023-04-20T07:27:45.331Z,45.50
2023-04-20T07:30:17.961Z,59.80
2023-04-20T07:32:50.360Z,52.30
2023-04-20T07:35:23.085Z,56.40
2023-04-20T07:37:55.170Z,47.10
2023-04-20T07:40:27.585Z,50.10
2023-04-20T07:42:59.994Z,52.40
2023-04-20T07:45:32.162Z,50.80
2023-04-20T07:48:05.720Z,49.30
2023-04-20T07:50:37.964Z,44.20
2023-04-20T07:53:10.392Z,47.80
2023-04-20T07:55:42.526Z,46.30
2023-04-20T07:58:16.401Z,49.20
2023-04-20T08:00:49.858Z,41.70
2023-04-20T08:03:22.212Z,48.50
2023-04-20T08:05:54.466Z,93.30
2023-04-20T08:08:27.599Z,43.70
2023-04-20T08:11:00.672Z,47.70
2023-04-20T08:13:32.681Z,52.20
2023-04-20T08:16:04.858Z,57.60
2023-04-20T08:18:36.928Z,42.60
2023-04-20T08:21:09.163Z,40.10
2023-04-20T08:23:41.534Z,35.60
2023-04-20T08:26:17.826Z,36.50
2023-04-20T08:28:50.338Z,36.10
2023-04-20T08:31:23.021Z,37.10
2023-04-20T08:33:55.259Z,42.40
2023-04-20T08:36:28.177Z,40.10
2023-04-20T08:39:10.154Z,38.50
2023-04-20T08:41:42.551Z,38.90
2023-04-20T08:44:15.655Z,36.10
2023-04-20T08:46:50.406Z,34.10
2023-04-20T08:49:28.388Z,40.60
2023-04-20T08:52:01.127Z,38.10
2023-04-20T08:54:35.119Z,34.40
2023-04-20T08:57:07.686Z,34.90
2023-04-20T08:59:41.835Z,34.00
2023-04-20T09:02:15.288Z,31.40
2023-04-20T09:04:49.239Z,27.00
2023-04-20T09:07:22.777Z,29.70
2023-04-20T09:09:58.752Z,27.30
2023-04-20T09:12:41.516Z,34.00
2023-04-20T09:15:25.128Z,28.80
2023-04-20T09:17:57.826Z,38.80
2023-04-20T09:20:36.716Z,37.00
2023-04-20T09:23:16.215Z,33.70
2023-04-20T09:25:53.196Z,27.50
2023-04-20T09:28:25.450Z,41.20
2023-04-20T09:30:57.548Z,54.50
2023-04-20T09:33:32.841Z,35.00
2023-04-20T09:36:08.010Z,30.80
2023-04-20T09:38:40.118Z,42.70
2023-04-20T09:41:12.578Z,35.20
2023-04-20T09:43:45.663Z,28.80
2023-04-20T09:46:17.870Z,30.20
2023-04-20T09:48:50.587Z,32.90
2023-04-20T09:51:23.806Z,22.20
2023-04-20T09:53:56.457Z,22.90
2023-04-20T09:56:29.108Z,24.70
2023-04-20T09:59:02.156Z,25.30
2023-04-20T10:01:36.611Z,22.80
2023-04-20T10:04:14.319Z,24.30
2023-04-20T10:06:58.031Z,22.60
2023-04-20T10:09:31.247Z,25.80
2023-04-20T10:12:12.353Z,22.70
2023-04-20T10:14:45.724Z,26.60
2023-04-20T10:17:18.295Z,23.70
2023-04-20T10:19:51.702Z,26.90
2023-04-20T10:26:51.677Z,51.40
2023-04-20T10:30:02.236Z,31.40
2023-04-20T10:32:34.501Z,22.60
2023-04-20T10:38:39.903Z,22.90
2023-04-20T10:41:13.147Z,21.80
2023-04-20T10:43:45.428Z,20.90
2023-04-20T10:46:25.517Z,20.90
2023-04-20T10:48:59.117Z,21.70
2023-04-20T10:51:38.101Z,23.20
2023-04-20T10:58:43.181Z,24.60
2023-04-20T11:02:19.221Z,93.80
2023-04-20T11:05:01.207Z,87.40
2023-04-20T11:08:18.877Z,115.70
2023-04-20T11:10:51.030Z,128.10
2023-04-20T11:13:25.829Z,79.50
2023-04-20T11:20:30.380Z,23.80
2023-04-20T11:23:05.102Z,19.50
2023-04-20T11:30:21.475Z,20.70
2023-04-20T11:40:40.009Z,41.60
2023-04-20T11:43:19.050Z,17.20
2023-04-20T11:54:20.208Z,16.80
2023-04-20T11:56:52.645Z,22.80
2023-04-20T11:59:30.892Z,40.20
2023-04-20T12:02:05.759Z,28.00
2023-04-20T12:04:45.561Z,13.20
2023-04-20T12:07:17.801Z,12.30
2023-04-20T12:09:57.965Z,66.20
2023-04-20T12:12:30.208Z,26.40
2023-04-20T12:23:55.118Z,11.40
2023-04-20T12:31:01.061Z,8.00
2023-04-20T12:33:33.259Z,10.10
2023-04-20T12:36:05.547Z,12.10
2023-04-20T12:38:43.942Z,8.40
2023-04-20T12:41:17.686Z,13.40
2023-04-20T12:47:44.364Z,6.70
2023-04-20T12:50:16.750Z,5.70
2023-04-20T12:57:13.540Z,6.20
2023-04-20T12:59:45.604Z,5.60
2023-04-20T13:02:18.369Z,5.70
2023-04-20T13:04:56.995Z,5.80
2023-04-20T13:07:29.199Z,5.50
2023-04-20T13:10:03.461Z,4.70
2023-04-20T13:13:09.821Z,4.80
2023-04-20T13:15:48.329Z,4.70
2023-04-20T13:18:20.817Z,8.30
2023-04-20T13:21:20.662Z,5.60
2023-04-20T13:28:25.750Z,4.40
2023-04-20T13:30:58.348Z,5.10
2023-04-20T13:33:37.084Z,19.50
2023-04-20T13:41:46.569Z,5.50
2023-04-20T13:44:25.156Z,4.60
2023-04-20T13:46:57.250Z,3.80
2023-04-20T13:49:29.413Z,3.80
2023-04-20T13:52:07.410Z,6.60
2023-04-20T13:54:39.674Z,13.20
2023-04-20T13:57:12.131Z,25.60
2023-04-20T13:59:51.043Z,9.70
2023-04-20T14:02:24.988Z,5.70
2023-04-20T14:09:34.313Z,5.60
2023-04-20T14:15:59.808Z,63.70
2023-04-20T14:18:32.012Z,13.00
2023-04-20T14:21:04.174Z,44.80
2023-04-20T14:28:16.659Z,14.70
2023-04-20T14:35:09.306Z,7.70
2023-04-20T14:38:03.814Z,4.40
2023-04-20T14:40:36.023Z,4.20
2023-04-20T14:47:06.226Z,4.00
2023-04-20T14:49:50.023Z,3.40
2023-04-20T14:52:28.180Z,3.90
2023-04-20T14:55:00.557Z,4.00
2023-04-20T15:02:07.587Z,5.30
2023-04-20T15:04:46.516Z,5.10
2023-04-20T15:07:19.346Z,7.90
2023-04-20T15:14:25.668Z,4.20
2023-04-20T15:17:00.497Z,4.80
2023-04-20T15:19:32.670Z,4.40
2023-04-20T15:22:04.868Z,4.00
2023-04-20T15:24:36.962Z,4.90
2023-04-20T15:27:09.221Z,4.60
2023-04-20T15:29:41.349Z,5.30
2023-04-20T15:32:13.643Z,5.10
2023-04-20T15:34:45.945Z,4.80
2023-04-20T15:37:18.010Z,5.90
2023-04-20T15:39:50.147Z,4.90
2023-04-20T15:42:22.582Z,5.70
2023-04-20T15:44:54.686Z,5.70
2023-04-20T15:47:26.840Z,4.90
2023-04-20T15:50:01.560Z,5.50
2023-04-20T15:52:34.351Z,5.80
2023-04-20T15:55:08.958Z,5.90
2023-04-20T15:57:42.534Z,5.40
2023-04-20T16:00:17.074Z,5.50
2023-04-20T16:02:49.501Z,4.60
2023-04-20T16:05:22.216Z,5.00
2023-04-20T16:07:54.748Z,5.50
2023-04-20T16:10:28.227Z,5.10
2023-04-20T16:13:00.475Z,5.10
2023-04-20T16:15:33.814Z,5.90
2023-04-20T16:18:06.409Z,5.90
2023-04-20T16:20:40.701Z,6.60
2023-04-20T16:23:13.640Z,7.00
2023-04-20T16:25:46.062Z,6.20
2023-04-20T16:28:18.252Z,8.40
2023-04-20T16:30:50.601Z,7.40
2023-04-20T16:33:23.314Z,6.20
2023-04-20T16:35:55.600Z,6.70
2023-04-20T16:38:27.852Z,5.90
2023-04-20T16:41:00.137Z,6.70
2023-04-20T16:43:32.255Z,8.20
2023-04-20T16:46:04.914Z,7.50
2023-04-20T16:48:37.168Z,5.90
2023-04-20T16:51:09.913Z,6.20
2023-04-20T16:53:42.072Z,8.40
2023-04-20T16:56:14.259Z,8.30
2023-04-20T16:58:47.134Z,8.90
2023-04-20T17:01:19.346Z,8.60
2023-04-20T17:03:51.945Z,8.10
2023-04-20T17:06:24.180Z,7.90
2023-04-20T17:09:01.452Z,8.10
2023-04-20T17:11:35.959Z,8.20
2023-04-20T17:14:08.326Z,9.20
2023-04-20T17:16:40.737Z,8.60
2023-04-20T17:19:12.836Z,8.60
2023-04-20T17:21:45.752Z,8.70
2023-04-20T17:24:21.910Z,8.80
2023-04-20T17:26:54.343Z,10.40
2023-04-20T17:29:26.904Z,10.00
2023-04-20T17:31:59.487Z,10.00
2023-04-20T17:34:31.727Z,10.10
2023-04-20T17:37:03.936Z,9.90
2023-04-20T17:39:36.053Z,11.60
2023-04-20T17:42:08.526Z,11.50
2023-04-20T17:44:40.615Z,10.70
2023-04-20T17:47:15.025Z,10.30
2023-04-20T17:49:47.173Z,10.40
2023-04-20T17:52:25.354Z,9.40
2023-04-20T17:55:00.056Z,10.30
2023-04-20T17:57:32.427Z,12.00
2023-04-20T18:00:05.400Z,12.20
2023-04-20T18:02:44.301Z,13.00
2023-04-20T18:05:17.117Z,10.90
2023-04-20T18:07:49.491Z,10.90
2023-04-20T18:10:21.792Z,10.50
2023-04-20T18:12:54.531Z,10.60
2023-04-20T18:15:28.205Z,17.00
2023-04-20T18:18:03.409Z,21.70
2023-04-20T18:20:35.673Z,27.40
2023-04-20T18:23:08.110Z,27.00
2023-04-20T18:25:40.814Z,24.20
2023-04-20T18:28:12.986Z,23.70
2023-04-20T18:30:45.340Z,25.60
2023-04-20T18:33:17.452Z,26.70
2023-04-20T18:35:50.119Z,35.20
2023-04-20T18:38:22.334Z,33.30
2023-04-20T18:41:03.361Z,28.50
2023-04-20T18:43:37.151Z,33.40
2023-04-20T18:46:09.514Z,33.20
2023-04-20T18:49:03.796Z,23.60
2023-04-20T18:51:36.435Z,20.20
2023-04-20T18:54:08.885Z,19.60
2023-04-20T19:01:13.624Z,16.00
2023-04-20T19:03:52.875Z,15.40
2023-04-20T19:06:26.166Z,15.40
2023-04-20T19:09:31.187Z,13.80
2023-04-20T19:12:09.775Z,15.60
2023-04-20T19:14:42.320Z,17.10
2023-04-20T19:28:40.706Z,29.40
2023-04-20T19:39:29.136Z,31.40
2023-04-20T19:42:26.451Z,31.10
2023-04-20T19:49:37.864Z,27.40
2023-04-20T19:56:42.629Z,35.30
2023-04-20T19:59:14.851Z,37.60
2023-04-20T20:01:48.337Z,37.80
2023-04-20T20:05:08.342Z,33.10
2023-04-20T20:07:47.574Z,33.60
2023-04-20T20:10:19.847Z,32.40
2023-04-20T20:12:58.650Z,27.30
2023-04-20T20:15:31.022Z,28.60
2023-04-20T20:18:10.693Z,27.70
2023-04-20T20:20:43.434Z,26.30
2023-04-20T20:23:15.956Z,27.30
2023-04-20T20:39:41.141Z,20.50
2023-04-20T20:46:50.085Z,28.00
2023-04-20T20:49:22.406Z,28.60
2023-04-20T20:56:25.872Z,33.50
2023-04-20T20:58:58.062Z,30.20
2023-04-20T21:01:37.736Z,28.30
2023-04-20T21:04:10.065Z,29.40
2023-04-20T21:06:48.644Z,22.80
2023-04-20T21:09:22.125Z,26.10
2023-04-20T21:12:01.085Z,26.70
2023-04-20T21:18:15.763Z,21.80
2023-04-20T21:20:49.523Z,21.80
2023-04-20T21:23:21.789Z,22.60
2023-04-20T21:30:28.290Z,26.50
2023-04-20T21:37:32.793Z,24.50
2023-04-20T21:40:37.231Z,27.20
2023-04-20T21:46:24.608Z,26.70
2023-04-20T21:48:57.030Z,25.10
2023-04-20T21:56:42.346Z,25.70
2023-04-20T21:59:15.569Z,25.90
2023-04-20T22:01:47.913Z,31.50
2023-04-20T22:05:01.052Z,23.50
2023-04-20T22:07:34.160Z,28.80
2023-04-20T22:10:10.975Z,28.10
2023-04-20T22:18:00.931Z,25.70
2023-04-20T22:20:40.695Z,27.40
2023-04-20T22:23:12.929Z,31.80
2023-04-20T22:34:57.180Z,32.10
2023-04-20T22:37:29.455Z,34.30
2023-04-20T22:40:01.675Z,35.10
2023-04-20T22:42:41.454Z,36.00
2023-04-20T22:45:14.363Z,37.00
2023-04-20T22:51:06.956Z,35.30
2023-04-20T22:53:54.618Z,39.50
2023-04-20T22:56:33.550Z,32.10
2023-04-20T22:59:05.853Z,35.20
2023-04-20T23:01:38.165Z,33.30
2023-04-20T23:04:55.025Z,30.80
2023-04-20T23:07:27.635Z,33.10
2023-04-20T23:10:01.506Z,31.80
2023-04-20T23:12:40.630Z,33.80
2023-04-20T23:19:46.010Z,36.60
2023-04-20T23:22:18.489Z,34.60
2023-04-20T23:24:50.925Z,37.10
2023-04-20T23:27:23.123Z,38.90
2023-04-20T23:33:49.326Z,41.10
2023-04-20T23:36:22.023Z,45.80
2023-04-20T23:43:26.933Z,42.90
2023-04-20T23:54:54.335Z,39.20
2023-04-20T23:57:26.579Z,43.70
2023-04-20T23:59:59.353Z,44.50
